Terminal Aerodrome Forecast
Issued by NWS

Home | Current Version | Previous Version | Text Only | Print | Product List | Glossary On
Versions: 1 2 3 4 5 6 7 8 9 10 11 12 13 14 15 16 17 18 19 20 21 22 23 24 25 26 27 28 29 30 31 32 33 34
456
FTUS45 KSLC 052346
TAF36U
TAF
K36U 052346Z 0600/0624 VRB03KT P6SM SCT040
     FM060400 VRB03KT 5SM BR BCFG SCT005 SCT040
     FM061300 VRB03KT 1SM BR BKN005
     FM061700 VRB04KT 6SM BR FEW040 SCT150=

USA.gov is the U.S. government's official web portal to all federal, state and local government web resources and services.